Evening Tide — WY9441 — position and weather

sailwx.info

Track history (hours):
 
Tides and Currents Weather Stations Pressure Air Temp Water Temp Dewpoint Dewpoint Depression Visibility Wind Speed Wind Dir Waves Ship Positions

Evening Tide

Owner: TUG EVENING TIDE CORP, MELVILLE, NY. More information available from US FCC via Universal Licensing System and Coast Guard Vessel Documentation Center.

Last reported at 2018-Feb-22 06:58 UTC. Time now 2018-Feb-22 07:01 UTC.
Position N 39°49' W 075°24'.

Length 43 m.

Type: Towing. MMSI: 367006620.

Date/timePositionNaut miles runAvg speedWind from/ knotsBaromVisibWave heightAir tempDewpointWater temp
2018-Feb-22 06:58N 39°49' W 075°24'0 0.0
2018-Feb-22 06:28N 39°49' W 075°24'0 0.0
2018-Feb-22 05:58N 39°49' W 075°24'0 0.0
2018-Feb-22 05:28N 39°49' W 075°24'0 0.0
2018-Feb-22 04:58N 39°49' W 075°24'0 0.0
2018-Feb-22 04:31N 39°49' W 075°24'0 0.0
2018-Feb-22 04:01N 39°49' W 075°24'0 0.0
2018-Feb-22 03:28N 39°49' W 075°24'0 0.0
2018-Feb-22 02:58N 39°49' W 075°24'0 0.0
2018-Feb-22 02:30N 39°49' W 075°24'0 0.0
2018-Feb-22 02:00N 39°49' W 075°24'0 0.0
2018-Feb-22 01:30N 39°49' W 075°24'0 0.0
2018-Feb-22 01:00N 39°49' W 075°24'0 0.0
2018-Feb-22 00:30N 39°49' W 075°24'0 0.0
2018-Feb-22 00:00N 39°49' W 075°24'0 0.0
2018-Feb-21 23:30N 39°49' W 075°24'0 0.0
2018-Feb-21 23:00N 39°49' W 075°24'0 0.0
2018-Feb-21 22:31N 39°49' W 075°24'0 0.0
2018-Feb-21 22:00N 39°49' W 075°24'0 0.0
2018-Feb-21 21:30N 39°49' W 075°24'0 0.0
2018-Feb-21 21:00N 39°49' W 075°24'0 0.0
2018-Feb-21 20:30N 39°49' W 075°24'0 0.0
2018-Feb-21 20:00N 39°49' W 075°24'0 0.9
2018-Feb-21 19:31N 39°48' W 075°25'3 6.5
2018-Feb-21 19:00N 39°47' W 075°28'2 4.7
2018-Feb-21 18:30N 39°45' W 075°30'2 3.8
2018-Feb-21 18:00N 39°43' W 075°30'2 3.9
2018-Feb-21 17:30N 39°41' W 075°31'3 5.4
2018-Feb-21 17:00N 39°39' W 075°33'3 6.0
2018-Feb-21 16:30N 39°36' W 075°34'3 6.2
2018-Feb-21 16:00N 39°33' W 075°32'3 6.0
2018-Feb-21 15:31N 39°30' W 075°33'3 6.4
2018-Feb-21 15:01N 39°27' W 075°33'3 6.6
2018-Feb-21 14:30N 39°24' W 075°30'3 6.1
2018-Feb-21 14:00N 39°22' W 075°27'3 4.8
2018-Feb-21 13:29N 39°20' W 075°26'0 0.1
2018-Feb-21 12:59N 39°20' W 075°26'0 0.0
2018-Feb-21 12:29N 39°20' W 075°26'0 0.0
2018-Feb-21 11:59N 39°20' W 075°26'0 0.0
2018-Feb-21 11:29N 39°20' W 075°26'0 0.0
2018-Feb-21 10:59N 39°20' W 075°26'0 0.1
2018-Feb-21 10:29N 39°20' W 075°26'0 0.0
2018-Feb-21 09:59N 39°20' W 075°26'0 0.0
2018-Feb-21 09:28N 39°20' W 075°26'0 0.3
2018-Feb-21 08:58N 39°20' W 075°26'0 0.2
2018-Feb-21 08:25N 39°20' W 075°26'0 0.0
2018-Feb-21 07:58N 39°20' W 075°26'0 0.0
2018-Feb-21 07:28N 39°20' W 075°26'0 0.0
2018-Feb-21 06:58N 39°20' W 075°26'0 0.0
2018-Feb-21 06:25N 39°20' W 075°26'0 0.0
2018-Feb-21 05:58N 39°20' W 075°26'0 0.1
2018-Feb-21 05:28N 39°20' W 075°26'2 3.3
2018-Feb-21 05:01N 39°19' W 075°24'4 8.1
2018-Feb-21 04:30N 39°16' W 075°21'4 7.3
2018-Feb-21 04:01N 39°13' W 075°18'4 7.7
2018-Feb-21 03:30N 39°10' W 075°15'4 7.6
2018-Feb-21 03:00N 39°07' W 075°13'4 7.3
2018-Feb-21 02:30N 39°04' W 075°10'4 6.9
2018-Feb-21 01:59N 39°00' W 075°09'1 2.1
2018-Feb-21 01:29N 38°59' W 075°09'5 4.6
2018-Feb-21 00:22N 38°55' W 075°05'61 4.4
2018-Feb-20 10:38N 39°34' W 074°05'2 6.0
2018-Feb-20 10:20N 39°36' W 074°04'2 6.1
2018-Feb-20 09:59N 39°37' W 074°03'3 6.0
2018-Feb-20 09:28N 39°40' W 074°01'4 6.1
2018-Feb-20 08:52N 39°44' W 073°59'46 6.2
2018-Feb-20 01:32N 40°29' W 073°55'0 5.6
2018-Feb-20 01:30N 40°29' W 073°55'3 5.1
2018-Feb-20 00:53N 40°31' W 073°58'2 4.2
2018-Feb-20 00:30N 40°31' W 074°00'2 4.7
2018-Feb-20 00:00N 40°34' W 074°02'2 5.0
2018-Feb-19 23:30N 40°36' W 074°02'1 1.3
2018-Feb-19 22:58N 40°37' W 074°03'2 3.5
2018-Feb-19 22:30N 40°38' W 074°04'2 4.6
2018-Feb-19 22:00N 40°39' W 074°07'2 5.0
2018-Feb-19 21:30N 40°39' W 074°10'1 2.3
2018-Feb-19 20:57N 40°39' W 074°11'1 2.6
2018-Feb-19 20:30N 40°38' W 074°12'1 2.7
2018-Feb-19 19:59N 40°36' W 074°12'0 0.0
2018-Feb-19 19:26N 40°36' W 074°12'0 0.0
2018-Feb-19 18:50N 40°36' W 074°12'0 0.2
2018-Feb-19 18:29N 40°36' W 074°12'0 0.0
2018-Feb-19 17:47N 40°36' W 074°12'0 0.0
2018-Feb-19 17:29N 40°36' W 074°12'0 0.3
2018-Feb-19 16:50N 40°36' W 074°12'2 6.5
2018-Feb-19 16:30N 40°38' W 074°11'4 6.0
2018-Feb-19 15:55N 40°39' W 074°07'0 0.0
2018-Feb-19 15:28N 40°39' W 074°07'0 0.0
2018-Feb-19 14:55N 40°39' W 074°07'0 0.0
2018-Feb-19 14:19N 40°39' W 074°07'0 0.0
2018-Feb-19 13:49N 40°39' W 074°07'0 0.0
2018-Feb-19 13:28N 40°39' W 074°07'0 0.0
2018-Feb-19 12:58N 40°39' W 074°07'0 0.0
2018-Feb-19 12:25N 40°39' W 074°07'0 0.0
2018-Feb-19 11:58N 40°39' W 074°07'0 0.0
2018-Feb-19 11:28N 40°39' W 074°07'0 0.0
2018-Feb-19 10:58N 40°39' W 074°07'0 0.0
2018-Feb-19 10:25N 40°39' W 074°07'0 0.0
2018-Feb-19 09:58N 40°39' W 074°07'0 0.0
2018-Feb-19 09:28N 40°39' W 074°07'0 0.0
2018-Feb-19 08:58N 40°39' W 074°07'0 0.0
2018-Feb-19 08:25N 40°39' W 074°07'0 0.0
2018-Feb-19 07:55N 40°39' W 074°07'0 0.0
2018-Feb-19 05:46N 40°39' W 074°07'0 0.0
2018-Feb-19 04:34N 40°39' W 074°07'0 0.1
2018-Feb-19 04:28N 40°39' W 074°07'0 0.0
2018-Feb-19 03:58N 40°39' W 074°07'1 2.0
2018-Feb-19 03:30N 40°39' W 074°08'4 7.5
2018-Feb-19 03:00N 40°37' W 074°12'0 0.9
2018-Feb-19 02:30N 40°36' W 074°12'0 0.3
2018-Feb-19 02:00N 40°36' W 074°12'2 2.8
2018-Feb-19 01:22N 40°34' W 074°13'0 0.1
2018-Feb-19 00:58N 40°34' W 074°13'2 5.0
2018-Feb-19 00:30N 40°33' W 074°15'0 0.0
2018-Feb-18 05:28N 40°33' W 074°15'3 5.7
2018-Feb-18 05:00N 40°34' W 074°13'1 0.9
2018-Feb-18 04:26N 40°35' W 074°13'0 0.0
2018-Feb-18 03:56N 40°35' W 074°13'0 0.0
2018-Feb-18 03:26N 40°35' W 074°13'0 0.0
2018-Feb-18 02:44N 40°35' W 074°13'0 0.0
2018-Feb-18 02:26N 40°35' W 074°13'0 0.0
2018-Feb-18 01:56N 40°35' W 074°13'0 0.0
2018-Feb-18 01:14N 40°35' W 074°13'0 0.0
2018-Feb-18 00:50N 40°35' W 074°13'0 0.0
2018-Feb-18 00:26N 40°35' W 074°13'0 0.0
2018-Feb-17 23:56N 40°35' W 074°13'0 0.0
2018-Feb-17 23:14N 40°35' W 074°13'0 0.0
2018-Feb-17 22:50N 40°35' W 074°13'0 0.0
2018-Feb-17 22:26N 40°35' W 074°13'0 0.0
2018-Feb-17 21:50N 40°35' W 074°13'0 0.0
2018-Feb-17 21:08N 40°35' W 074°13'0 0.1
2018-Feb-17 20:56N 40°35' W 074°13'0 0.0
2018-Feb-17 20:20N 40°35' W 074°13'0 0.0
2018-Feb-17 19:56N 40°35' W 074°13'0 0.0
2018-Feb-17 19:20N 40°35' W 074°13'0 1.0
2018-Feb-17 18:54N 40°35' W 074°13'1 3.0
2018-Feb-17 18:30N 40°33' W 074°13'2 0.1
2018-Feb-17 07:07N 40°33' W 074°15'1 8.1
2018-Feb-17 06:59N 40°33' W 074°14'3 5.6
2018-Feb-17 06:29N 40°36' W 074°12'0 0.0
2018-Feb-17 05:53N 40°36' W 074°12'0 0.0
2018-Feb-17 05:29N 40°36' W 074°12'0 0.0
2018-Feb-17 04:59N 40°36' W 074°12'0 0.0
2018-Feb-17 04:23N 40°36' W 074°12'0 0.0
2018-Feb-17 03:59N 40°36' W 074°12'0 0.0
2018-Feb-17 03:29N 40°36' W 074°12'0 0.0
2018-Feb-17 02:59N 40°36' W 074°12'2 4.8
2018-Feb-17 02:29N 40°33' W 074°13'1 2.8
2018-Feb-17 01:59N 40°33' W 074°15'0 0.4
2018-Feb-17 01:14N 40°33' W 074°15'2 6.5
2018-Feb-17 00:56N 40°34' W 074°13'3 7.7
2018-Feb-17 00:30N 40°37' W 074°12'3 6.9
2018-Feb-17 00:00N 40°39' W 074°08'7 6.5
2018-Feb-16 22:59N 40°41' W 074°00'0 0.0
2018-Feb-16 22:29N 40°41' W 074°00'0 0.1
2018-Feb-16 22:00N 40°41' W 074°00'4 8.4
2018-Feb-16 21:30N 40°39' W 074°05'2 3.0
2018-Feb-16 20:59N 40°39' W 074°07'0 0.0
2018-Feb-16 20:29N 40°39' W 074°07'0 0.0
2018-Feb-16 19:59N 40°39' W 074°07'0 0.0
2018-Feb-16 19:29N 40°39' W 074°07'0 0.0
2018-Feb-16 18:59N 40°39' W 074°07'2 3.6
2018-Feb-16 18:30N 40°39' W 074°09'4 6.8
2018-Feb-16 17:59N 40°36' W 074°12'5 0.3
2018-Feb-15 20:45N 40°30' W 074°11'2 6.4
2018-Feb-15 20:27N 40°30' W 074°09'0 0.0
2018-Feb-14 11:15N 40°30' W 074°09'0 0.0
2018-Feb-14 10:57N 40°30' W 074°09'0 0.0
2018-Feb-14 10:30N 40°30' W 074°09'0 0.0
2018-Feb-14 08:48N 40°29' W 074°09'0 0.0
2018-Feb-14 08:30N 40°29' W 074°09'0 0.0
2018-Feb-14 07:57N 40°29' W 074°09'0 0.0
2018-Feb-13 23:00N 40°30' W 074°09'0 0.0
2018-Feb-13 22:30N 40°30' W 074°09'0 0.0
2018-Feb-13 21:42N 40°30' W 074°09'0 0.0
2018-Feb-13 21:24N 40°30' W 074°09'0 0.0
2018-Feb-13 16:51N 40°30' W 074°09'0 0.0
2018-Feb-13 15:06N 40°30' W 074°09'0 0.0
2018-Feb-12 23:38N 40°30' W 074°09'0 2.1
2018-Feb-12 23:29N 40°30' W 074°09'6 4.3
2018-Feb-12 22:11N 40°33' W 074°15'2 5.5
2018-Feb-12 21:46N 40°35' W 074°13'2 6.0
2018-Feb-12 21:30N 40°36' W 074°12'3 5.6
2018-Feb-12 21:00N 40°39' W 074°10'4 7.5
2018-Feb-12 20:30N 40°39' W 074°05'2 4.0
2018-Feb-12 19:58N 40°39' W 074°02'0 0.0
2018-Feb-12 19:28N 40°39' W 074°02'0 0.0
2018-Feb-12 18:58N 40°39' W 074°02'0 0.0
2018-Feb-12 18:28N 40°39' W 074°03'0 0.0
2018-Feb-12 17:58N 40°39' W 074°03'0 0.0
2018-Feb-12 17:28N 40°39' W 074°03'0 0.0
2018-Feb-12 16:55N 40°39' W 074°03'0 0.0
2018-Feb-12 16:28N 40°39' W 074°02'0 0.0
2018-Feb-12 15:58N 40°39' W 074°02'0 0.0
2018-Feb-12 15:16N 40°39' W 074°03'0 0.0
2018-Feb-12 14:58N 40°39' W 074°03'0 0.0
2018-Feb-12 14:28N 40°39' W 074°02'0 0.0
2018-Feb-12 13:58N 40°39' W 074°02'0 0.0
2018-Feb-12 13:28N 40°39' W 074°02'0 0.0
2018-Feb-12 13:01N 40°39' W 074°02'0 0.0
2018-Feb-12 12:31N 40°39' W 074°02'0 0.0
2018-Feb-12 12:00N 40°39' W 074°02'0 0.3
2018-Feb-12 11:30N 40°39' W 074°02'0 0.3
2018-Feb-12 10:59N 40°39' W 074°02'0 0.0
2018-Feb-12 10:29N 40°39' W 074°02'0 0.1
2018-Feb-12 09:59N 40°39' W 074°02'0 0.0
2018-Feb-12 09:29N 40°39' W 074°02'0 0.0
2018-Feb-12 08:59N 40°39' W 074°02'0 0.0
2018-Feb-12 08:29N 40°39' W 074°02'0 0.0
2018-Feb-12 07:59N 40°39' W 074°02'0 0.0
2018-Feb-12 07:29N 40°39' W 074°02'0 0.0
2018-Feb-12 06:59N 40°39' W 074°02'  
Track history (hours):
 
Tides and Currents Weather Stations Pressure Air Temp Water Temp Dewpoint Dewpoint Depression Visibility Wind Speed Wind Dir Waves Ship Positions

Evening Tide

Owner: TUG EVENING TIDE CORP, MELVILLE, NY. More information available from US FCC via Universal Licensing System and Coast Guard Vessel Documentation Center.

Last reported at 2018-Feb-22 06:58 UTC. Time now 2018-Feb-22 07:01 UTC.
Position N 39°49' W 075°24'.

Length 43 m.

Type: Towing. MMSI: 367006620.

Date/timePositionNaut miles runAvg speedWind from/ knotsBaromVisibWave heightAir tempDewpointWater temp
2018-Feb-22 06:58N 39°49' W 075°24'0 0.0
2018-Feb-22 06:28N 39°49' W 075°24'0 0.0
2018-Feb-22 05:58N 39°49' W 075°24'0 0.0
2018-Feb-22 05:28N 39°49' W 075°24'0 0.0
2018-Feb-22 04:58N 39°49' W 075°24'0 0.0
2018-Feb-22 04:31N 39°49' W 075°24'0 0.0
2018-Feb-22 04:01N 39°49' W 075°24'0 0.0
2018-Feb-22 03:28N 39°49' W 075°24'0 0.0
2018-Feb-22 02:58N 39°49' W 075°24'0 0.0
2018-Feb-22 02:30N 39°49' W 075°24'0 0.0
2018-Feb-22 02:00N 39°49' W 075°24'0 0.0
2018-Feb-22 01:30N 39°49' W 075°24'0 0.0
2018-Feb-22 01:00N 39°49' W 075°24'0 0.0
2018-Feb-22 00:30N 39°49' W 075°24'0 0.0
2018-Feb-22 00:00N 39°49' W 075°24'0 0.0
2018-Feb-21 23:30N 39°49' W 075°24'0 0.0
2018-Feb-21 23:00N 39°49' W 075°24'0 0.0
2018-Feb-21 22:31N 39°49' W 075°24'0 0.0
2018-Feb-21 22:00N 39°49' W 075°24'0 0.0
2018-Feb-21 21:30N 39°49' W 075°24'0 0.0
2018-Feb-21 21:00N 39°49' W 075°24'0 0.0
2018-Feb-21 20:30N 39°49' W 075°24'0 0.0
2018-Feb-21 20:00N 39°49' W 075°24'0 0.9
2018-Feb-21 19:31N 39°48' W 075°25'3 6.5
2018-Feb-21 19:00N 39°47' W 075°28'2 4.7
2018-Feb-21 18:30N 39°45' W 075°30'2 3.8
2018-Feb-21 18:00N 39°43' W 075°30'2 3.9
2018-Feb-21 17:30N 39°41' W 075°31'3 5.4
2018-Feb-21 17:00N 39°39' W 075°33'3 6.0
2018-Feb-21 16:30N 39°36' W 075°34'3 6.2
2018-Feb-21 16:00N 39°33' W 075°32'3 6.0
2018-Feb-21 15:31N 39°30' W 075°33'3 6.4
2018-Feb-21 15:01N 39°27' W 075°33'3 6.6
2018-Feb-21 14:30N 39°24' W 075°30'3 6.1
2018-Feb-21 14:00N 39°22' W 075°27'3 4.8
2018-Feb-21 13:29N 39°20' W 075°26'0 0.1
2018-Feb-21 12:59N 39°20' W 075°26'0 0.0
2018-Feb-21 12:29N 39°20' W 075°26'0 0.0
2018-Feb-21 11:59N 39°20' W 075°26'0 0.0
2018-Feb-21 11:29N 39°20' W 075°26'0 0.0
2018-Feb-21 10:59N 39°20' W 075°26'0 0.1
2018-Feb-21 10:29N 39°20' W 075°26'0 0.0
2018-Feb-21 09:59N 39°20' W 075°26'0 0.0
2018-Feb-21 09:28N 39°20' W 075°26'0 0.3
2018-Feb-21 08:58N 39°20' W 075°26'0 0.2
2018-Feb-21 08:25N 39°20' W 075°26'0 0.0
2018-Feb-21 07:58N 39°20' W 075°26'0 0.0
2018-Feb-21 07:28N 39°20' W 075°26'0 0.0
2018-Feb-21 06:58N 39°20' W 075°26'0 0.0
2018-Feb-21 06:25N 39°20' W 075°26'0 0.0
2018-Feb-21 05:58N 39°20' W 075°26'0 0.1
2018-Feb-21 05:28N 39°20' W 075°26'2 3.3
2018-Feb-21 05:01N 39°19' W 075°24'4 8.1
2018-Feb-21 04:30N 39°16' W 075°21'4 7.3
2018-Feb-21 04:01N 39°13' W 075°18'4 7.7
2018-Feb-21 03:30N 39°10' W 075°15'4 7.6
2018-Feb-21 03:00N 39°07' W 075°13'4 7.3
2018-Feb-21 02:30N 39°04' W 075°10'4 6.9
2018-Feb-21 01:59N 39°00' W 075°09'1 2.1
2018-Feb-21 01:29N 38°59' W 075°09'5 4.6
2018-Feb-21 00:22N 38°55' W 075°05'61 4.4
2018-Feb-20 10:38N 39°34' W 074°05'2 6.0
2018-Feb-20 10:20N 39°36' W 074°04'2 6.1
2018-Feb-20 09:59N 39°37' W 074°03'3 6.0
2018-Feb-20 09:28N 39°40' W 074°01'4 6.1
2018-Feb-20 08:52N 39°44' W 073°59'46 6.2
2018-Feb-20 01:32N 40°29' W 073°55'0 5.6
2018-Feb-20 01:30N 40°29' W 073°55'3 5.1
2018-Feb-20 00:53N 40°31' W 073°58'2 4.2
2018-Feb-20 00:30N 40°31' W 074°00'2 4.7
2018-Feb-20 00:00N 40°34' W 074°02'2 5.0
2018-Feb-19 23:30N 40°36' W 074°02'1 1.3
2018-Feb-19 22:58N 40°37' W 074°03'2 3.5
2018-Feb-19 22:30N 40°38' W 074°04'2 4.6
2018-Feb-19 22:00N 40°39' W 074°07'2 5.0
2018-Feb-19 21:30N 40°39' W 074°10'1 2.3
2018-Feb-19 20:57N 40°39' W 074°11'1 2.6
2018-Feb-19 20:30N 40°38' W 074°12'1 2.7
2018-Feb-19 19:59N 40°36' W 074°12'0 0.0
2018-Feb-19 19:26N 40°36' W 074°12'0 0.0
2018-Feb-19 18:50N 40°36' W 074°12'0 0.2
2018-Feb-19 18:29N 40°36' W 074°12'0 0.0
2018-Feb-19 17:47N 40°36' W 074°12'0 0.0
2018-Feb-19 17:29N 40°36' W 074°12'0 0.3
2018-Feb-19 16:50N 40°36' W 074°12'2 6.5
2018-Feb-19 16:30N 40°38' W 074°11'4 6.0
2018-Feb-19 15:55N 40°39' W 074°07'0 0.0
2018-Feb-19 15:28N 40°39' W 074°07'0 0.0
2018-Feb-19 14:55N 40°39' W 074°07'0 0.0
2018-Feb-19 14:19N 40°39' W 074°07'0 0.0
2018-Feb-19 13:49N 40°39' W 074°07'0 0.0
2018-Feb-19 13:28N 40°39' W 074°07'0 0.0
2018-Feb-19 12:58N 40°39' W 074°07'0 0.0
2018-Feb-19 12:25N 40°39' W 074°07'0 0.0
2018-Feb-19 11:58N 40°39' W 074°07'0 0.0
2018-Feb-19 11:28N 40°39' W 074°07'0 0.0
2018-Feb-19 10:58N 40°39' W 074°07'0 0.0
2018-Feb-19 10:25N 40°39' W 074°07'0 0.0
2018-Feb-19 09:58N 40°39' W 074°07'0 0.0
2018-Feb-19 09:28N 40°39' W 074°07'0 0.0
2018-Feb-19 08:58N 40°39' W 074°07'0 0.0
2018-Feb-19 08:25N 40°39' W 074°07'0 0.0
2018-Feb-19 07:55N 40°39' W 074°07'0 0.0
2018-Feb-19 05:46N 40°39' W 074°07'0 0.0
2018-Feb-19 04:34N 40°39' W 074°07'0 0.1
2018-Feb-19 04:28N 40°39' W 074°07'0 0.0
2018-Feb-19 03:58N 40°39' W 074°07'1 2.0
2018-Feb-19 03:30N 40°39' W 074°08'4 7.5
2018-Feb-19 03:00N 40°37' W 074°12'0 0.9
2018-Feb-19 02:30N 40°36' W 074°12'0 0.3
2018-Feb-19 02:00N 40°36' W 074°12'2 2.8
2018-Feb-19 01:22N 40°34' W 074°13'0 0.1
2018-Feb-19 00:58N 40°34' W 074°13'2 5.0
2018-Feb-19 00:30N 40°33' W 074°15'0 0.0
2018-Feb-18 05:28N 40°33' W 074°15'3 5.7
2018-Feb-18 05:00N 40°34' W 074°13'1 0.9
2018-Feb-18 04:26N 40°35' W 074°13'0 0.0
2018-Feb-18 03:56N 40°35' W 074°13'0 0.0
2018-Feb-18 03:26N 40°35' W 074°13'0 0.0
2018-Feb-18 02:44N 40°35' W 074°13'0 0.0
2018-Feb-18 02:26N 40°35' W 074°13'0 0.0
2018-Feb-18 01:56N 40°35' W 074°13'0 0.0
2018-Feb-18 01:14N 40°35' W 074°13'0 0.0
2018-Feb-18 00:50N 40°35' W 074°13'0 0.0
2018-Feb-18 00:26N 40°35' W 074°13'0 0.0
2018-Feb-17 23:56N 40°35' W 074°13'0 0.0
2018-Feb-17 23:14N 40°35' W 074°13'0 0.0
2018-Feb-17 22:50N 40°35' W 074°13'0 0.0
2018-Feb-17 22:26N 40°35' W 074°13'0 0.0
2018-Feb-17 21:50N 40°35' W 074°13'0 0.0
2018-Feb-17 21:08N 40°35' W 074°13'0 0.1
2018-Feb-17 20:56N 40°35' W 074°13'0 0.0
2018-Feb-17 20:20N 40°35' W 074°13'0 0.0
2018-Feb-17 19:56N 40°35' W 074°13'0 0.0
2018-Feb-17 19:20N 40°35' W 074°13'0 1.0
2018-Feb-17 18:54N 40°35' W 074°13'1 3.0
2018-Feb-17 18:30N 40°33' W 074°13'2 0.1
2018-Feb-17 07:07N 40°33' W 074°15'1 8.1
2018-Feb-17 06:59N 40°33' W 074°14'3 5.6
2018-Feb-17 06:29N 40°36' W 074°12'0 0.0
2018-Feb-17 05:53N 40°36' W 074°12'0 0.0
2018-Feb-17 05:29N 40°36' W 074°12'0 0.0
2018-Feb-17 04:59N 40°36' W 074°12'0 0.0
2018-Feb-17 04:23N 40°36' W 074°12'0 0.0
2018-Feb-17 03:59N 40°36' W 074°12'0 0.0
2018-Feb-17 03:29N 40°36' W 074°12'0 0.0
2018-Feb-17 02:59N 40°36' W 074°12'2 4.8
2018-Feb-17 02:29N 40°33' W 074°13'1 2.8
2018-Feb-17 01:59N 40°33' W 074°15'0 0.4
2018-Feb-17 01:14N 40°33' W 074°15'2 6.5
2018-Feb-17 00:56N 40°34' W 074°13'3 7.7
2018-Feb-17 00:30N 40°37' W 074°12'3 6.9
2018-Feb-17 00:00N 40°39' W 074°08'7 6.5
2018-Feb-16 22:59N 40°41' W 074°00'0 0.0
2018-Feb-16 22:29N 40°41' W 074°00'0 0.1
2018-Feb-16 22:00N 40°41' W 074°00'4 8.4
2018-Feb-16 21:30N 40°39' W 074°05'2 3.0
2018-Feb-16 20:59N 40°39' W 074°07'0 0.0
2018-Feb-16 20:29N 40°39' W 074°07'0 0.0
2018-Feb-16 19:59N 40°39' W 074°07'0 0.0
2018-Feb-16 19:29N 40°39' W 074°07'0 0.0
2018-Feb-16 18:59N 40°39' W 074°07'2 3.6
2018-Feb-16 18:30N 40°39' W 074°09'4 6.8
2018-Feb-16 17:59N 40°36' W 074°12'5 0.3
2018-Feb-15 20:45N 40°30' W 074°11'2 6.4
2018-Feb-15 20:27N 40°30' W 074°09'0 0.0
2018-Feb-14 11:15N 40°30' W 074°09'0 0.0
2018-Feb-14 10:57N 40°30' W 074°09'0 0.0
2018-Feb-14 10:30N 40°30' W 074°09'0 0.0
2018-Feb-14 08:48N 40°29' W 074°09'0 0.0
2018-Feb-14 08:30N 40°29' W 074°09'0 0.0
2018-Feb-14 07:57N 40°29' W 074°09'0 0.0
2018-Feb-13 23:00N 40°30' W 074°09'0 0.0
2018-Feb-13 22:30N 40°30' W 074°09'0 0.0
2018-Feb-13 21:42N 40°30' W 074°09'0 0.0
2018-Feb-13 21:24N 40°30' W 074°09'0 0.0
2018-Feb-13 16:51N 40°30' W 074°09'0 0.0
2018-Feb-13 15:06N 40°30' W 074°09'0 0.0
2018-Feb-12 23:38N 40°30' W 074°09'0 2.1
2018-Feb-12 23:29N 40°30' W 074°09'6 4.3
2018-Feb-12 22:11N 40°33' W 074°15'2 5.5
2018-Feb-12 21:46N 40°35' W 074°13'2 6.0
2018-Feb-12 21:30N 40°36' W 074°12'3 5.6
2018-Feb-12 21:00N 40°39' W 074°10'4 7.5
2018-Feb-12 20:30N 40°39' W 074°05'2 4.0
2018-Feb-12 19:58N 40°39' W 074°02'0 0.0
2018-Feb-12 19:28N 40°39' W 074°02'0 0.0
2018-Feb-12 18:58N 40°39' W 074°02'0 0.0
2018-Feb-12 18:28N 40°39' W 074°03'0 0.0
2018-Feb-12 17:58N 40°39' W 074°03'0 0.0
2018-Feb-12 17:28N 40°39' W 074°03'0 0.0
2018-Feb-12 16:55N 40°39' W 074°03'0 0.0
2018-Feb-12 16:28N 40°39' W 074°02'0 0.0
2018-Feb-12 15:58N 40°39' W 074°02'0 0.0
2018-Feb-12 15:16N 40°39' W 074°03'0 0.0
2018-Feb-12 14:58N 40°39' W 074°03'0 0.0
2018-Feb-12 14:28N 40°39' W 074°02'0 0.0
2018-Feb-12 13:58N 40°39' W 074°02'0 0.0
2018-Feb-12 13:28N 40°39' W 074°02'0 0.0
2018-Feb-12 13:01N 40°39' W 074°02'0 0.0
2018-Feb-12 12:31N 40°39' W 074°02'0 0.0
2018-Feb-12 12:00N 40°39' W 074°02'0 0.3
2018-Feb-12 11:30N 40°39' W 074°02'0 0.3
2018-Feb-12 10:59N 40°39' W 074°02'0 0.0
2018-Feb-12 10:29N 40°39' W 074°02'0 0.1
2018-Feb-12 09:59N 40°39' W 074°02'0 0.0
2018-Feb-12 09:29N 40°39' W 074°02'0 0.0
2018-Feb-12 08:59N 40°39' W 074°02'0 0.0
2018-Feb-12 08:29N 40°39' W 074°02'0 0.0
2018-Feb-12 07:59N 40°39' W 074°02'0 0.0
2018-Feb-12 07:29N 40°39' W 074°02'0 0.0
2018-Feb-12 06:59N 40°39' W 074°02'  

Dump ship's entire track history